createdAt,value
2019-01-14T00:00:06.600Z,90.68
2019-01-14T00:01:06.604Z,90.47
2019-01-14T00:02:06.560Z,90.02
2019-01-14T00:03:06.568Z,90.37
2019-01-14T00:04:06.540Z,90.68
2019-01-14T00:05:06.552Z,90.06
2019-01-14T00:06:10.201Z,90.02
2019-01-14T00:07:06.500Z,91.40
2019-01-14T00:08:06.492Z,90.26
2019-01-14T00:09:06.496Z,90.16
2019-01-14T00:10:06.468Z,90.58
2019-01-14T00:11:06.464Z,90.06
2019-01-14T00:12:06.448Z,90.06
2019-01-14T00:13:06.436Z,90.06
2019-01-14T00:14:06.425Z,90.33
2019-01-14T00:15:06.421Z,90.16
2019-01-14T00:16:06.404Z,90.33
2019-01-14T00:17:06.392Z,90.33
2019-01-14T00:18:06.378Z,90.47
2019-01-14T00:19:06.373Z,90.26
2019-01-14T00:20:06.372Z,89.95
2019-01-14T00:21:06.351Z,90.47
2019-01-14T00:22:06.336Z,90.47
2019-01-14T00:23:06.324Z,90.99
2019-01-14T00:24:06.312Z,91.09
2019-01-14T00:25:06.301Z,91.30
2019-01-14T00:26:06.312Z,90.47
2019-01-14T00:27:06.288Z,91.09
2019-01-14T00:28:06.272Z,90.47
2019-01-14T00:29:06.253Z,90.68
2019-01-14T00:30:06.244Z,90.37
2019-01-14T00:31:06.232Z,90.37
2019-01-14T00:32:06.240Z,91.40
2019-01-14T00:33:06.224Z,90.89
2019-01-14T00:34:06.200Z,91.20
2019-01-14T00:35:06.192Z,90.58
2019-01-14T00:36:06.172Z,90.26
2019-01-14T00:37:06.168Z,90.58
2019-01-14T00:38:06.180Z,90.47
2019-01-14T00:39:06.140Z,90.00
2019-01-14T00:40:06.133Z,90.10
2019-01-14T00:41:06.120Z,90.20
2019-01-14T00:42:06.115Z,90.06
2019-01-14T00:43:06.120Z,90.41
2019-01-14T00:44:06.088Z,89.95
2019-01-14T00:45:06.072Z,90.41
2019-01-14T00:46:06.072Z,91.03
2019-01-14T00:47:06.048Z,91.65
2019-01-14T00:48:06.036Z,91.65
2019-01-14T00:49:06.044Z,92.89
2019-01-14T00:50:06.044Z,92.58
2019-01-14T00:51:06.012Z,92.68
2019-01-14T00:52:05.995Z,92.63
2019-01-14T00:53:05.992Z,93.55
2019-01-14T00:54:05.976Z,93.55
2019-01-14T00:55:06.000Z,93.76
2019-01-14T00:56:05.962Z,94.28
2019-01-14T00:57:05.936Z,95.21
2019-01-14T00:58:05.951Z,94.53
2019-01-14T00:59:05.924Z,94.84
2019-01-14T01:00:05.905Z,95.36
2019-01-14T01:01:05.982Z,95.10
2019-01-14T01:02:05.888Z,95.25
2019-01-14T01:03:05.868Z,95.46
2019-01-14T01:04:05.868Z,95.87
2019-01-14T01:05:05.848Z,95.56
2019-01-14T01:06:05.865Z,95.77
2019-01-14T01:07:05.840Z,95.56
2019-01-14T01:08:05.812Z,95.67
2019-01-14T01:09:05.812Z,95.98
2019-01-14T01:10:05.804Z,95.36
2019-01-14T01:11:05.779Z,95.46
2019-01-14T01:12:05.772Z,95.98
2019-01-14T01:13:05.832Z,95.77
2019-01-14T01:14:05.752Z,95.56
2019-01-14T01:15:05.736Z,95.87
2019-01-14T01:16:05.731Z,95.67
2019-01-14T01:17:05.711Z,95.46
2019-01-14T01:18:05.708Z,95.77
2019-01-14T01:19:05.716Z,95.46
2019-01-14T01:20:05.683Z,95.77
2019-01-14T01:21:05.670Z,95.77
2019-01-14T01:22:05.656Z,96.70
2019-01-14T01:23:05.664Z,95.77
2019-01-14T01:24:05.684Z,96.29
2019-01-14T01:25:05.640Z,96.59
2019-01-14T01:26:05.612Z,96.19
2019-01-14T01:27:05.616Z,96.70
2019-01-14T01:28:05.595Z,96.44
2019-01-14T01:29:05.584Z,96.91
2019-01-14T01:30:05.588Z,96.23
2019-01-14T01:31:05.568Z,96.64
2019-01-14T01:32:05.548Z,95.77
2019-01-14T01:33:05.535Z,95.56
2019-01-14T01:34:05.525Z,96.02
2019-01-14T01:35:05.536Z,95.40
2019-01-14T01:36:05.501Z,95.67
2019-01-14T01:37:05.488Z,95.56
2019-01-14T01:38:05.480Z,95.15
2019-01-14T01:39:05.467Z,95.04
2019-01-14T01:40:05.473Z,94.68
2019-01-14T01:41:05.493Z,95.29
2019-01-14T01:42:05.433Z,95.25
2019-01-14T01:43:05.429Z,94.43
2019-01-14T01:44:05.416Z,94.32
2019-01-14T01:45:05.406Z,94.22
2019-01-14T01:46:05.394Z,94.89
2019-01-14T01:47:05.400Z,94.63
2019-01-14T01:48:05.375Z,94.06
2019-01-14T01:49:05.361Z,94.78
2019-01-14T01:50:05.344Z,94.26
2019-01-14T01:51:05.337Z,94.73
2019-01-14T01:52:05.336Z,94.98
2019-01-14T01:53:05.324Z,94.98
2019-01-14T01:54:05.316Z,94.98
2019-01-14T01:55:05.293Z,94.57
2019-01-14T01:56:05.276Z,95.04
2019-01-14T01:57:05.271Z,94.89
2019-01-14T01:58:05.269Z,95.19
2019-01-14T01:59:05.244Z,94.89
2019-01-14T02:00:05.260Z,95.09
2019-01-14T02:01:05.220Z,95.71
2019-01-14T02:02:05.207Z,95.71
2019-01-14T02:03:05.203Z,95.50
2019-01-14T02:04:05.215Z,96.12
2019-01-14T02:05:05.196Z,95.96
2019-01-14T02:06:05.169Z,96.06
2019-01-14T02:07:05.151Z,96.79
2019-01-14T02:08:05.153Z,96.58
2019-01-14T02:09:05.132Z,96.48
2019-01-14T02:10:05.132Z,96.79
2019-01-14T02:11:05.113Z,97.00
2019-01-14T02:12:05.101Z,97.00
2019-01-14T02:13:05.087Z,97.00
2019-01-14T02:14:05.099Z,96.69
2019-01-14T02:15:05.099Z,97.10
2019-01-14T02:16:05.054Z,96.83
2019-01-14T02:17:05.049Z,96.69
2019-01-14T02:18:05.031Z,97.00
2019-01-14T02:19:05.029Z,97.00
2019-01-14T02:20:05.015Z,97.00
2019-01-14T02:21:05.021Z,97.10
2019-01-14T02:22:05.004Z,96.48
2019-01-14T02:23:04.979Z,96.37
2019-01-14T02:24:04.970Z,96.27
2019-01-14T02:25:04.955Z,96.37
2019-01-14T02:26:04.943Z,96.48
2019-01-14T02:27:04.935Z,97.04
2019-01-14T02:28:04.980Z,96.83
2019-01-14T02:29:04.907Z,96.73
2019-01-14T02:30:04.901Z,96.94
2019-01-14T02:31:04.884Z,96.52
2019-01-14T02:32:04.877Z,97.45
2019-01-14T02:33:04.868Z,97.25
2019-01-14T02:34:04.872Z,97.14
2019-01-14T02:35:04.841Z,97.04
2019-01-14T02:36:04.852Z,97.14
2019-01-14T02:37:04.815Z,97.14
2019-01-14T02:38:04.805Z,97.35
2019-01-14T02:39:04.830Z,97.35
2019-01-14T02:40:04.818Z,97.35
2019-01-14T02:41:04.777Z,96.73
2019-01-14T02:42:04.760Z,97.14
2019-01-14T02:43:04.753Z,97.14
2019-01-14T02:44:04.743Z,96.83
2019-01-14T02:45:04.764Z,97.04
2019-01-14T02:46:04.760Z,96.94
2019-01-14T02:47:04.703Z,96.73
2019-01-14T02:48:04.693Z,96.94
2019-01-14T02:49:04.687Z,96.62
2019-01-14T02:50:04.674Z,96.83
2019-01-14T02:51:04.660Z,97.35
2019-01-14T02:52:04.687Z,97.35
2019-01-14T02:53:04.646Z,96.94
2019-01-14T02:54:04.636Z,96.83
2019-01-14T02:55:04.617Z,96.83
2019-01-14T02:56:04.610Z,96.83
2019-01-14T02:57:04.597Z,97.56
2019-01-14T02:58:04.603Z,97.56
2019-01-14T02:59:04.572Z,97.45
2019-01-14T03:00:04.564Z,97.14
2019-01-14T03:01:04.571Z,97.45
2019-01-14T03:02:04.551Z,97.25
2019-01-14T03:03:04.526Z,97.14
2019-01-14T03:04:04.527Z,97.14
2019-01-14T03:05:04.505Z,97.14
2019-01-14T03:06:04.502Z,97.14
2019-01-14T03:07:04.483Z,97.35
2019-01-14T03:08:04.491Z,96.83
2019-01-14T03:09:04.457Z,97.20
2019-01-14T03:10:04.464Z,96.83
2019-01-14T03:11:04.436Z,96.73
2019-01-14T03:12:04.426Z,96.94
2019-01-14T03:13:04.415Z,96.73
2019-01-14T03:14:04.415Z,96.94
2019-01-14T03:15:04.392Z,96.83
2019-01-14T03:16:04.391Z,96.52
2019-01-14T03:17:04.369Z,96.94
2019-01-14T03:18:04.358Z,96.37
2019-01-14T03:19:04.366Z,96.89
2019-01-14T03:20:04.345Z,95.18
2019-01-14T03:21:04.323Z,93.52
2019-01-14T03:22:04.312Z,93.52
2019-01-14T03:23:04.319Z,93.62
2019-01-14T03:24:04.288Z,94.04
2019-01-14T03:25:04.314Z,93.73
2019-01-14T03:26:04.267Z,94.14
2019-01-14T03:27:04.256Z,94.35
2019-01-14T03:28:04.248Z,94.97
2019-01-14T03:29:04.235Z,95.59
2019-01-14T03:30:04.228Z,95.80
2019-01-14T03:31:04.237Z,96.73
2019-01-14T03:32:04.205Z,97.04
2019-01-14T03:33:04.206Z,97.14
2019-01-14T03:34:04.184Z,97.45
2019-01-14T03:35:04.163Z,97.45
2019-01-14T03:36:04.164Z,98.18
2019-01-14T03:37:05.647Z,98.18
2019-01-14T03:38:04.131Z,98.49
2019-01-14T03:39:04.119Z,98.28
2019-01-14T03:40:04.107Z,98.28
2019-01-14T03:41:04.119Z,97.50
2019-01-14T03:42:04.087Z,97.35
2019-01-14T03:43:04.091Z,96.78
2019-01-14T03:44:04.067Z,97.29
2019-01-14T03:45:04.082Z,97.09
2019-01-14T03:46:04.050Z,97.03
2019-01-14T03:47:04.032Z,98.07
2019-01-14T03:48:04.040Z,98.07
2019-01-14T03:49:04.020Z,98.58
2019-01-14T03:50:04.003Z,98.21
2019-01-14T03:51:03.987Z,97.59
2019-01-14T03:52:03.988Z,98.32
2019-01-14T03:53:03.962Z,98.21
2019-01-14T03:54:03.963Z,98.63
2019-01-14T03:55:03.943Z,99.56
2019-01-14T03:56:03.931Z,99.56
2019-01-14T03:57:03.935Z,99.35
2019-01-14T03:58:03.911Z,99.82
2019-01-14T03:59:03.918Z,99.99
2019-01-14T04:00:03.903Z,99.99
2019-01-14T04:01:03.883Z,99.99
2019-01-14T04:02:03.883Z,99.99
2019-01-14T04:03:03.852Z,99.99
2019-01-14T04:04:03.839Z,99.99
2019-01-14T04:05:03.856Z,99.99
2019-01-14T04:06:03.815Z,99.99
2019-01-14T04:07:03.811Z,99.99
2019-01-14T04:08:03.798Z,99.99
2019-01-14T04:09:03.783Z,99.99
2019-01-14T04:10:03.771Z,99.99
2019-01-14T04:11:03.789Z,99.99
2019-01-14T04:12:03.751Z,99.99
2019-01-14T04:13:03.740Z,99.99
2019-01-14T04:14:03.727Z,99.99
2019-01-14T04:15:03.715Z,99.99
2019-01-14T04:16:03.709Z,99.99
2019-01-14T04:17:03.723Z,99.99
2019-01-14T04:18:03.686Z,99.99
2019-01-14T04:19:03.671Z,99.99
2019-01-14T04:20:03.659Z,99.99
2019-01-14T04:21:03.647Z,99.99
2019-01-14T04:22:03.659Z,99.99
2019-01-14T04:23:03.645Z,99.99
2019-01-14T04:24:03.619Z,99.99
2019-01-14T04:25:03.635Z,99.99
2019-01-14T04:26:03.596Z,99.99
2019-01-14T04:27:03.580Z,99.99
2019-01-14T04:28:03.590Z,99.99
2019-01-14T04:29:03.563Z,99.99
2019-01-14T04:30:03.555Z,99.99
2019-01-14T04:31:03.547Z,99.99
2019-01-14T04:32:03.536Z,99.99
2019-01-14T04:33:03.519Z,98.16
2019-01-14T04:34:03.546Z,98.57
2019-01-14T04:35:03.522Z,97.64
2019-01-14T04:36:03.498Z,96.64
2019-01-14T04:37:03.475Z,97.02
2019-01-14T04:38:03.466Z,97.74
2019-01-14T04:39:03.451Z,98.57
2019-01-14T04:40:03.451Z,98.16
2019-01-14T04:41:03.435Z,98.61
2019-01-14T04:42:03.427Z,99.24
2019-01-14T04:43:03.414Z,99.55
2019-01-14T04:44:03.399Z,99.61
2019-01-14T04:45:03.400Z,99.65
2019-01-14T04:46:03.366Z,99.44
2019-01-14T04:47:03.359Z,99.99
2019-01-14T04:48:03.356Z,99.99
2019-01-14T04:49:03.339Z,99.99
2019-01-14T04:50:03.355Z,99.99
2019-01-14T04:51:03.314Z,99.99
2019-01-14T04:52:03.307Z,99.99
2019-01-14T04:53:03.295Z,99.99
2019-01-14T04:54:03.291Z,99.99
2019-01-14T04:55:03.269Z,99.99
2019-01-14T04:56:03.271Z,99.99
2019-01-14T04:57:03.258Z,99.99
2019-01-14T04:58:03.248Z,99.96
2019-01-14T04:59:03.241Z,99.99
2019-01-14T05:00:03.210Z,99.99
2019-01-14T05:01:03.203Z,99.99
2019-01-14T05:02:03.192Z,99.99
2019-01-14T05:03:03.211Z,99.99
2019-01-14T05:04:03.179Z,99.99
2019-01-14T05:05:03.168Z,99.99
2019-01-14T05:06:03.150Z,99.99
2019-01-14T05:07:03.135Z,99.40
2019-01-14T05:08:03.127Z,99.96
2019-01-14T05:09:03.130Z,98.82
2019-01-14T05:10:03.122Z,98.20
2019-01-14T05:11:03.090Z,98.72
2019-01-14T05:12:03.080Z,98.82
2019-01-14T05:13:03.071Z,98.57
2019-01-14T05:14:03.062Z,97.99
2019-01-14T05:15:03.063Z,97.68
2019-01-14T05:16:03.046Z,97.58
2019-01-14T05:17:03.023Z,97.43
2019-01-14T05:18:03.023Z,97.47
2019-01-14T05:19:03.040Z,97.64
2019-01-14T05:20:03.006Z,97.58
2019-01-14T05:21:02.976Z,97.89
2019-01-14T05:22:03.003Z,97.47
2019-01-14T05:23:02.955Z,97.43
2019-01-14T05:24:02.948Z,97.37
2019-01-14T05:25:02.935Z,97.58
2019-01-14T05:26:02.937Z,97.58
2019-01-14T05:27:02.928Z,97.06
2019-01-14T05:28:02.902Z,96.75
2019-01-14T05:29:02.892Z,96.44
2019-01-14T05:30:02.883Z,96.54
2019-01-14T05:31:02.905Z,95.81
2019-01-14T05:32:03.747Z,95.81
2019-01-14T05:33:02.851Z,95.92
2019-01-14T05:34:02.878Z,96.33
2019-01-14T05:35:02.831Z,95.92
2019-01-14T05:36:02.835Z,96.91
2019-01-14T05:37:02.819Z,96.54
2019-01-14T05:38:02.838Z,96.64
2019-01-14T05:39:02.776Z,96.95
2019-01-14T05:40:02.843Z,97.06
2019-01-14T05:41:02.775Z,97.58
2019-01-14T05:42:03.246Z,97.27
2019-01-14T05:43:02.753Z,96.75
2019-01-14T05:44:02.884Z,96.33
2019-01-14T05:45:02.707Z,96.95
2019-01-14T05:46:02.711Z,96.54
2019-01-14T05:47:02.698Z,96.75
2019-01-14T05:48:02.708Z,96.81
2019-01-14T05:49:02.692Z,96.23
2019-01-14T05:50:02.680Z,95.56
2019-01-14T05:51:02.661Z,95.67
2019-01-14T05:52:02.638Z,95.04
2019-01-14T05:53:02.621Z,95.77
2019-01-14T05:54:02.642Z,95.15
2019-01-14T05:55:02.607Z,95.56
2019-01-14T05:56:02.582Z,95.36
2019-01-14T05:57:02.572Z,95.04
2019-01-14T05:58:02.581Z,95.04
2019-01-14T05:59:02.553Z,95.87
2019-01-14T06:00:02.586Z,95.56
2019-01-14T06:01:02.577Z,95.15
2019-01-14T06:02:02.517Z,94.67
2019-01-14T06:03:02.527Z,94.98
2019-01-14T06:04:02.498Z,94.78
2019-01-14T06:05:02.490Z,95.81
2019-01-14T06:06:02.482Z,95.15
2019-01-14T06:07:02.461Z,94.63
2019-01-14T06:08:02.470Z,94.73
2019-01-14T06:09:02.438Z,95.15
2019-01-14T06:10:02.424Z,94.94
2019-01-14T06:11:02.457Z,95.77
2019-01-14T06:12:02.409Z,95.25
2019-01-14T06:13:02.394Z,95.36
2019-01-14T06:14:02.382Z,95.15
2019-01-14T06:15:02.374Z,95.15
2019-01-14T06:16:02.360Z,94.53
2019-01-14T06:17:02.374Z,93.59
2019-01-14T06:18:02.354Z,93.38
2019-01-14T06:19:02.326Z,94.01
2019-01-14T06:20:02.326Z,93.49
2019-01-14T06:21:02.309Z,93.90
2019-01-14T06:22:02.308Z,93.49
2019-01-14T06:23:02.294Z,93.70
2019-01-14T06:24:02.271Z,94.53
2019-01-14T06:25:02.262Z,93.49
2019-01-14T06:26:02.282Z,94.11
2019-01-14T06:27:02.250Z,94.11
2019-01-14T06:28:02.243Z,94.21
2019-01-14T06:29:02.231Z,94.53
2019-01-14T06:30:02.205Z,94.21
2019-01-14T06:31:02.190Z,94.21
2019-01-14T06:32:02.214Z,94.42
2019-01-14T06:33:02.172Z,93.38
2019-01-14T06:34:02.159Z,93.28
2019-01-14T06:35:02.169Z,93.38
2019-01-14T06:36:02.143Z,93.49
2019-01-14T06:37:02.122Z,91.83
2019-01-14T06:38:02.136Z,92.66
2019-01-14T06:39:02.102Z,93.18
2019-01-14T06:40:02.109Z,92.86
2019-01-14T06:41:02.080Z,92.35
2019-01-14T06:42:02.085Z,92.03
2019-01-14T06:43:02.062Z,90.58
2019-01-14T06:44:02.047Z,90.48
2019-01-14T06:45:02.069Z,90.64
2019-01-14T06:46:02.038Z,91.10
2019-01-14T06:47:02.018Z,91.83
2019-01-14T06:48:02.026Z,90.37
2019-01-14T06:49:01.993Z,90.69
2019-01-14T06:50:01.993Z,91.41
2019-01-14T06:51:01.969Z,91.00
2019-01-14T06:52:01.981Z,90.79
2019-01-14T06:53:01.982Z,91.31
2019-01-14T06:54:01.968Z,90.27
2019-01-14T06:55:01.934Z,90.27
2019-01-14T06:56:01.915Z,91.00
2019-01-14T06:57:01.921Z,89.75
2019-01-14T06:58:01.900Z,90.27
2019-01-14T06:59:01.882Z,90.27
2019-01-14T07:00:01.926Z,90.62
2019-01-14T07:01:01.871Z,90.83
2019-01-14T07:02:01.879Z,90.52
2019-01-14T07:03:01.839Z,89.79
2019-01-14T07:04:01.822Z,90.62
2019-01-14T07:05:01.811Z,89.37
2019-01-14T07:06:01.803Z,89.27
2019-01-14T07:07:01.803Z,90.31
2019-01-14T07:08:01.791Z,90.00
2019-01-14T07:09:01.771Z,91.14
2019-01-14T07:10:01.780Z,89.69
2019-01-14T07:11:01.743Z,90.31
2019-01-14T07:12:01.734Z,89.89
2019-01-14T07:13:01.735Z,90.31
2019-01-14T07:14:01.728Z,89.27
2019-01-14T07:15:01.699Z,90.52
2019-01-14T07:16:01.706Z,89.58
2019-01-14T07:17:01.679Z,88.75
2019-01-14T07:18:01.671Z,89.37
2019-01-14T07:19:01.675Z,89.89
2019-01-14T07:20:01.672Z,90.20
2019-01-14T07:21:01.635Z,89.37
2019-01-14T07:22:01.624Z,89.03
2019-01-14T07:23:01.611Z,89.17
2019-01-14T07:24:01.602Z,88.54
2019-01-14T07:25:01.591Z,89.06
2019-01-14T07:26:01.587Z,88.96
2019-01-14T07:27:01.595Z,88.75
2019-01-14T07:28:01.559Z,87.92
2019-01-14T07:29:01.550Z,88.23
2019-01-14T07:30:01.530Z,88.65
2019-01-14T07:31:01.539Z,88.71
2019-01-14T07:32:01.506Z,88.13
2019-01-14T07:33:01.498Z,89.17
2019-01-14T07:34:01.502Z,88.65
2019-01-14T07:35:02.326Z,87.88
2019-01-14T07:36:01.478Z,88.54
2019-01-14T07:37:01.450Z,87.88
2019-01-14T07:38:06.568Z,88.85
2019-01-14T07:39:02.427Z,88.71
2019-01-14T07:40:01.430Z,88.30
2019-01-14T07:41:01.405Z,88.51
2019-01-14T07:42:01.422Z,88.30
2019-01-14T07:43:01.387Z,87.78
2019-01-14T07:44:01.374Z,88.30
2019-01-14T07:45:01.367Z,87.57
2019-01-14T07:46:01.358Z,87.88
2019-01-14T07:47:01.338Z,87.47
2019-01-14T07:48:01.362Z,88.20
2019-01-14T07:49:01.318Z,87.68
2019-01-14T07:50:01.310Z,88.30
2019-01-14T07:51:01.299Z,88.30
2019-01-14T07:52:01.286Z,88.51
2019-01-14T07:53:01.291Z,87.88
2019-01-14T07:54:01.262Z,87.88
2019-01-14T07:55:01.250Z,87.88
2019-01-14T07:56:01.242Z,87.26
2019-01-14T07:57:01.247Z,87.12
2019-01-14T07:58:01.270Z,87.37
2019-01-14T07:59:01.210Z,87.37
2019-01-14T08:00:01.199Z,86.12
2019-01-14T08:01:01.202Z,86.43
2019-01-14T08:02:01.175Z,87.47
2019-01-14T08:03:01.162Z,86.33
2019-01-14T08:04:01.173Z,85.60
2019-01-14T08:05:01.184Z,86.22
2019-01-14T08:06:01.126Z,86.02
2019-01-14T08:07:01.114Z,86.33
2019-01-14T08:08:01.106Z,85.81
2019-01-14T08:09:01.102Z,86.02
2019-01-14T08:10:01.104Z,86.54
2019-01-14T08:11:01.074Z,85.71
2019-01-14T08:12:01.062Z,85.60
2019-01-14T08:13:01.066Z,85.39
2019-01-14T08:14:01.044Z,86.16
2019-01-14T08:15:01.047Z,85.95
2019-01-14T08:16:01.021Z,85.74
2019-01-14T08:17:01.006Z,85.64
2019-01-14T08:18:01.035Z,85.74
2019-01-14T08:19:00.986Z,85.74
2019-01-14T08:20:00.973Z,85.12
2019-01-14T08:21:00.991Z,85.74
2019-01-14T08:22:00.946Z,85.53
2019-01-14T08:23:00.939Z,85.12
2019-01-14T08:24:00.934Z,85.43
2019-01-14T08:25:00.917Z,85.53
2019-01-14T08:26:00.926Z,85.57
2019-01-14T08:27:00.893Z,85.47
2019-01-14T08:28:00.903Z,85.57
2019-01-14T08:29:00.870Z,85.85
2019-01-14T08:30:00.935Z,86.05
2019-01-14T08:31:00.846Z,86.36
2019-01-14T08:32:00.842Z,86.41
2019-01-14T08:33:00.830Z,86.30
2019-01-14T08:34:00.856Z,86.19
2019-01-14T08:35:00.802Z,86.19
2019-01-14T08:36:00.790Z,87.34
2019-01-14T08:37:01.023Z,85.36
2019-01-14T08:38:00.770Z,85.78
2019-01-14T08:39:00.758Z,85.68
2019-01-14T08:40:00.770Z,85.47
2019-01-14T08:41:00.734Z,85.57
2019-01-14T08:42:00.722Z,85.47
2019-01-14T08:43:00.710Z,85.88
2019-01-14T08:44:00.718Z,85.78
2019-01-14T08:45:00.758Z,85.57
2019-01-14T08:46:00.702Z,85.57
2019-01-14T08:47:00.666Z,85.64
2019-01-14T08:48:00.654Z,84.60
2019-01-14T08:49:00.649Z,85.26
2019-01-14T08:50:00.638Z,85.12
2019-01-14T08:51:00.650Z,84.08
2019-01-14T08:52:00.609Z,85.12
2019-01-14T08:53:00.602Z,85.64
2019-01-14T08:54:00.606Z,84.19
2019-01-14T08:55:00.582Z,85.12
2019-01-14T08:56:00.582Z,85.02
2019-01-14T08:57:00.554Z,83.36
2019-01-14T08:58:00.566Z,83.56
2019-01-14T08:59:00.537Z,83.67
2019-01-14T09:00:00.522Z,83.36
2019-01-14T09:01:00.510Z,83.91
2019-01-14T09:02:00.513Z,85.64
2019-01-14T09:03:00.486Z,85.22
2019-01-14T09:04:00.479Z,85.12
2019-01-14T09:05:00.482Z,83.56
2019-01-14T09:06:00.454Z,83.60
2019-01-14T09:07:00.457Z,82.98
2019-01-14T09:08:00.431Z,84.33
2019-01-14T09:09:00.422Z,85.12
2019-01-14T09:10:00.491Z,85.85
2019-01-14T09:11:00.425Z,85.12
2019-01-14T09:12:00.392Z,83.67
2019-01-14T09:13:00.374Z,83.87
2019-01-14T09:14:00.370Z,83.56
2019-01-14T09:15:00.354Z,83.87
2019-01-14T09:16:00.366Z,83.77
2019-01-14T09:17:00.350Z,83.36
2019-01-14T09:18:02.869Z,82.63
2019-01-14T09:19:00.311Z,83.77
2019-01-14T09:20:00.359Z,83.98
2019-01-14T09:21:00.285Z,83.25
2019-01-14T09:22:00.295Z,84.08
2019-01-14T09:23:00.295Z,83.87
2019-01-14T09:24:00.253Z,83.46
2019-01-14T09:25:00.243Z,83.56
2019-01-14T09:26:00.231Z,83.67
2019-01-14T09:27:00.217Z,83.56
2019-01-14T09:28:00.212Z,83.87
2019-01-14T09:29:00.233Z,83.56
2019-01-14T09:30:00.237Z,82.84
2019-01-14T09:31:00.178Z,83.56
2019-01-14T09:32:00.162Z,83.36
2019-01-14T09:33:00.157Z,83.56
2019-01-14T09:34:00.150Z,83.25
2019-01-14T09:35:00.252Z,82.84
2019-01-14T09:36:00.138Z,83.87
2019-01-14T09:37:00.129Z,84.19
2019-01-14T09:38:00.108Z,85.33
2019-01-14T09:39:00.081Z,84.29
2019-01-14T09:40:00.094Z,85.43
2019-01-14T09:41:00.062Z,84.91
2019-01-14T09:42:00.067Z,84.81
2019-01-14T09:43:00.049Z,85.22
2019-01-14T09:44:00.025Z,85.22
2019-01-14T09:45:00.017Z,85.43
2019-01-14T09:46:00.005Z,85.85
2019-01-14T09:47:00.025Z,84.19
2019-01-14T09:47:59.990Z,85.33
2019-01-14T09:48:59.974Z,84.08
2019-01-14T09:49:59.962Z,83.67
2019-01-14T09:50:59.966Z,83.42
2019-01-14T09:51:59.945Z,83.53
2019-01-14T09:52:59.942Z,83.94
2019-01-14T09:53:59.917Z,84.05
2019-01-14T09:54:59.907Z,83.63
2019-01-14T09:55:59.894Z,84.36
2019-01-14T09:56:59.898Z,83.73
2019-01-14T09:57:59.869Z,82.80
2019-01-14T09:58:59.873Z,83.94
2019-01-14T09:59:59.862Z,81.97
2019-01-14T10:00:59.843Z,82.80
2019-01-14T10:01:59.830Z,82.07
2019-01-14T10:02:59.818Z,82.18
2019-01-14T10:03:59.841Z,81.97
2019-01-14T10:04:59.804Z,81.66
2019-01-14T10:05:59.802Z,82.39
2019-01-14T10:06:59.770Z,82.63
2019-01-14T10:07:59.758Z,81.90
2019-01-14T10:08:59.746Z,81.70
2019-01-14T10:09:59.750Z,81.70
2019-01-14T10:10:59.726Z,81.70
2019-01-14T10:11:59.729Z,80.55
2019-01-14T10:12:59.702Z,80.55
2019-01-14T10:13:59.689Z,81.56
2019-01-14T10:14:59.682Z,80.31
2019-01-14T10:15:59.698Z,79.79
2019-01-14T10:16:59.668Z,79.06
2019-01-14T10:17:59.649Z,78.92
2019-01-14T10:18:59.645Z,78.72
2019-01-14T10:19:59.627Z,79.69
2019-01-14T10:20:59.617Z,78.41
2019-01-14T10:21:59.625Z,78.23
2019-01-14T10:22:59.605Z,76.26
2019-01-14T10:23:59.581Z,75.74
2019-01-14T10:24:59.569Z,76.68
2019-01-14T10:25:59.558Z,76.68
2019-01-14T10:26:59.562Z,75.92
2019-01-14T10:27:59.565Z,76.85
2019-01-14T10:28:59.521Z,76.85
2019-01-14T10:29:59.515Z,78.09
2019-01-14T10:30:59.506Z,77.54
2019-01-14T10:31:59.489Z,77.37
2019-01-14T10:32:59.493Z,75.29
2019-01-14T10:33:59.485Z,76.23
2019-01-14T10:34:59.457Z,75.81
2019-01-14T10:35:59.449Z,78.37
2019-01-14T10:36:59.437Z,76.50
2019-01-14T10:37:59.423Z,76.19
2019-01-14T10:38:59.429Z,76.19
2019-01-14T10:39:59.421Z,75.36
2019-01-14T10:40:59.389Z,75.88
2019-01-14T10:41:59.378Z,76.09
2019-01-14T10:42:59.369Z,74.32
2019-01-14T10:43:59.373Z,74.63
2019-01-14T10:44:59.351Z,74.74
2019-01-14T10:45:59.350Z,75.67
2019-01-14T10:46:59.326Z,74.50
2019-01-14T10:47:59.309Z,73.05
2019-01-14T10:48:59.321Z,74.29
2019-01-14T10:49:59.305Z,74.60
2019-01-14T10:50:59.281Z,75.84
2019-01-14T10:51:59.285Z,75.12
2019-01-14T10:52:59.259Z,76.26
2019-01-14T10:53:59.245Z,74.40
2019-01-14T10:54:59.239Z,74.60
2019-01-14T10:55:59.233Z,73.25
2019-01-14T10:56:59.211Z,73.46
2019-01-14T10:57:59.229Z,72.74
2019-01-14T10:58:59.189Z,72.84
2019-01-14T10:59:59.182Z,72.63
2019-01-14T11:00:59.189Z,72.74
2019-01-14T11:01:59.162Z,72.94
2019-01-14T11:02:59.141Z,73.25
2019-01-14T11:03:59.145Z,72.81
2019-01-14T11:04:59.125Z,73.01
2019-01-14T11:05:59.113Z,71.43
2019-01-14T11:06:59.112Z,71.25
2019-01-14T11:07:59.089Z,71.98
2019-01-14T11:09:05.765Z,72.67
2019-01-14T11:10:00.245Z,72.29
2019-01-14T11:10:59.058Z,71.46
2019-01-14T11:11:59.062Z,72.29
2019-01-14T11:12:59.032Z,72.01
2019-01-14T11:13:59.033Z,72.71
2019-01-14T11:15:02.881Z,73.05
2019-01-14T11:15:59.007Z,73.05
2019-01-14T11:16:58.989Z,74.15
2019-01-14T11:17:58.973Z,72.81
2019-01-14T11:18:58.962Z,72.63
2019-01-14T11:19:58.975Z,71.80
2019-01-14T11:20:58.948Z,72.84
2019-01-14T11:21:58.929Z,73.88
2019-01-14T11:22:58.952Z,74.40
2019-01-14T11:23:58.927Z,74.08
2019-01-14T11:24:58.898Z,74.53
2019-01-14T11:25:58.885Z,74.63
2019-01-14T11:26:58.878Z,76.05
2019-01-14T11:27:58.878Z,74.74
2019-01-14T11:28:58.882Z,75.36
2019-01-14T11:29:58.841Z,75.15
2019-01-14T11:30:58.833Z,75.98
2019-01-14T11:31:58.817Z,76.61
2019-01-14T11:32:58.806Z,76.29
2019-01-14T11:33:58.809Z,76.29
2019-01-14T11:34:58.801Z,75.67
2019-01-14T11:35:58.794Z,76.43
2019-01-14T11:36:58.767Z,77.16
2019-01-14T11:37:58.751Z,77.37
2019-01-14T11:39:05.000Z,77.33
2019-01-14T11:39:59.725Z,76.75
2019-01-14T11:40:58.717Z,78.20
2019-01-14T11:41:58.757Z,77.89
2019-01-14T11:42:58.709Z,77.85
2019-01-14T11:43:58.685Z,77.23
2019-01-14T11:44:58.675Z,77.58
2019-01-14T11:45:58.691Z,77.12
2019-01-14T11:46:58.652Z,77.44
2019-01-14T11:47:58.653Z,77.75
2019-01-14T11:48:58.657Z,78.20
2019-01-14T11:49:58.618Z,78.30
2019-01-14T11:50:58.606Z,78.61
2019-01-14T11:51:58.598Z,77.95
2019-01-14T11:52:58.587Z,78.68
2019-01-14T11:53:58.601Z,78.51
2019-01-14T11:54:58.581Z,78.89
2019-01-14T11:55:58.549Z,77.99
2019-01-14T11:56:58.554Z,78.47
2019-01-14T11:57:58.529Z,78.92
2019-01-14T11:58:58.513Z,80.37
2019-01-14T11:59:58.513Z,80.58
2019-01-14T12:00:58.510Z,80.52
2019-01-14T12:01:58.489Z,80.52
2019-01-14T12:02:58.479Z,80.73
2019-01-14T12:03:58.458Z,80.45
2019-01-14T12:04:58.485Z,81.38
2019-01-14T12:05:58.441Z,80.66
2019-01-14T12:06:58.424Z,80.14
2019-01-14T12:07:58.429Z,80.52
2019-01-14T12:08:58.409Z,80.66
2019-01-14T12:09:58.393Z,79.41
2019-01-14T12:10:58.390Z,78.58
2019-01-14T12:11:58.373Z,79.41
2019-01-14T12:12:58.361Z,78.99
2019-01-14T12:13:58.345Z,78.58
2019-01-14T12:14:58.353Z,79.17
2019-01-14T12:15:58.345Z,77.51
2019-01-14T12:16:58.345Z,76.78
2019-01-14T12:17:58.303Z,76.47
2019-01-14T12:18:58.293Z,76.33
2019-01-14T12:19:58.282Z,76.64
2019-01-14T12:20:58.274Z,76.19
2019-01-14T12:21:58.265Z,76.09
2019-01-14T12:22:58.258Z,75.29
2019-01-14T12:23:58.253Z,76.50
2019-01-14T12:24:59.218Z,76.33
2019-01-14T12:25:58.234Z,75.26
2019-01-14T12:26:58.201Z,75.50
2019-01-14T12:27:58.209Z,76.33
2019-01-14T12:28:58.193Z,76.02
2019-01-14T12:29:58.165Z,75.71
2019-01-14T12:30:58.158Z,76.23
2019-01-14T12:31:58.161Z,76.23
2019-01-14T12:32:58.137Z,76.02
2019-01-14T12:33:58.138Z,76.85
2019-01-14T12:34:58.110Z,76.95
2019-01-14T12:35:58.120Z,77.26
2019-01-14T12:36:58.104Z,76.16
2019-01-14T12:37:58.078Z,76.26
2019-01-14T12:38:58.065Z,76.16
2019-01-14T12:39:58.053Z,76.26
2019-01-14T12:40:58.045Z,76.68
2019-01-14T12:41:58.053Z,76.57
2019-01-14T12:42:58.033Z,76.54
2019-01-14T12:44:01.833Z,76.68
2019-01-14T12:44:57.997Z,76.23
2019-01-14T12:45:57.990Z,76.78
2019-01-14T12:46:58.001Z,76.57
2019-01-14T12:47:57.982Z,76.57
2019-01-14T12:48:57.953Z,78.09
2019-01-14T12:49:57.941Z,77.09
2019-01-14T12:50:57.962Z,76.57
2019-01-14T12:51:57.926Z,76.37